Time;durP1;ratioP1;P1;durP2;ratioP2;P2;SDS_P1;SDS_P2;PMS_P1;PMS_P2;Temp;Humidity;BMP_temperature;BMP_pressure;BME280_temperature;BME280_humidity;BME280_pressure;Samples;Min_cycle;Max_cycle;Signal;HPM_P1;HPM_P2
2023/06/13 00:03:56;;;;;;;4.95;3.20;;;;;;;;;;13171301;22;20373;-82
2023/06/13 00:08:59;;;;;;;4.50;3.35;;;;;;;;;;13171324;22;20361;-81
2023/06/13 00:14:01;;;;;;;5.40;3.65;;;;;;;;;;13194042;22;20391;-81
2023/06/13 00:19:05;;;;;;;4.65;3.72;;;;;;;;;;13175829;22;20813;-81
2023/06/13 00:24:08;;;;;;;3.75;3.35;;;;;;;;;;13175623;22;20381;-81
2023/06/13 00:29:10;;;;;;;4.80;3.60;;;;;;;;;;13175124;22;20362;-81
2023/06/13 00:34:14;;;;;;;4.27;3.10;;;;;;;;;;13175861;22;20415;-82
2023/06/13 00:39:17;;;;;;;4.43;2.70;;;;;;;;;;13175141;22;20420;-82
2023/06/13 00:44:19;;;;;;;4.10;3.27;;;;;;;;;;13176412;22;20434;-82
2023/06/13 00:49:25;;;;;;;5.22;4.15;;;;;;;;;;13175970;22;20361;-82
2023/06/13 00:54:29;;;;;;;6.63;4.57;;;;;;;;;;13174631;22;20391;-81
2023/06/13 00:59:31;;;;;;;4.47;4.07;;;;;;;;;;13174706;22;20837;-82
2023/06/13 01:04:37;;;;;;;7.13;4.43;;;;;;;;;;13174126;22;20535;-82
2023/06/13 01:09:39;;;;;;;5.10;4.03;;;;;;;;;;13173817;22;20403;-82
2023/06/13 01:14:48;;;;;;;4.97;3.97;;;;;;;;;;13173701;22;20366;-82
2023/06/13 01:19:54;;;;;;;6.50;4.20;;;;;;;;;;13174612;22;20361;-82
2023/06/13 01:25:08;;;;;;;5.60;4.43;;;;;;;;;;13173898;22;20434;-81
2023/06/13 01:30:13;;;;;;;5.35;4.60;;;;;;;;;;13174119;22;20383;-82
2023/06/13 01:35:15;;;;;;;6.57;5.15;;;;;;;;;;13174921;22;20430;-81
2023/06/13 01:40:18;;;;;;;6.10;4.47;;;;;;;;;;13173754;22;20361;-81
2023/06/13 01:45:23;;;;;;;4.68;4.15;;;;;;;;;;13173527;22;20377;-81
2023/06/13 01:50:30;;;;;;;5.65;4.57;;;;;;;;;;13196362;22;20365;-81
2023/06/13 01:55:40;;;;;;;5.40;4.30;;;;;;;;;;13196078;22;20353;-81
2023/06/13 02:00:45;;;;;;;5.30;4.50;;;;;;;;;;13173586;22;20736;-82
2023/06/13 02:05:48;;;;;;;5.50;4.83;;;;;;;;;;13173566;22;20377;-81
2023/06/13 02:10:51;;;;;;;5.47;4.45;;;;;;;;;;13173183;22;20413;-81
2023/06/13 02:15:54;;;;;;;5.93;4.43;;;;;;;;;;13173636;22;20366;-81
2023/06/13 02:20:57;;;;;;;6.23;4.03;;;;;;;;;;13173777;22;20379;-81
2023/06/13 02:25:59;;;;;;;5.75;3.92;;;;;;;;;;13173171;22;20434;-81
2023/06/13 02:31:03;;;;;;;4.20;3.80;;;;;;;;;;13172444;22;20419;-81
2023/06/13 02:36:06;;;;;;;4.57;3.88;;;;;;;;;;13172487;22;20410;-81
2023/06/13 02:41:08;;;;;;;6.57;4.50;;;;;;;;;;13171442;22;20369;-81
2023/06/13 02:46:12;;;;;;;4.20;3.45;;;;;;;;;;13194326;22;20369;-81
2023/06/13 02:51:14;;;;;;;4.40;3.90;;;;;;;;;;13170219;22;20731;-81
2023/06/13 02:56:16;;;;;;;4.47;3.40;;;;;;;;;;13170345;22;20418;-81
2023/06/13 03:01:21;;;;;;;4.55;3.80;;;;;;;;;;13172094;22;20358;-82
2023/06/13 03:06:24;;;;;;;4.90;3.97;;;;;;;;;;13172356;22;20377;-81
2023/06/13 03:11:27;;;;;;;4.93;3.70;;;;;;;;;;13172991;22;20386;-81
2023/06/13 03:16:31;;;;;;;6.03;3.83;;;;;;;;;;13193712;22;20366;-81
2023/06/13 03:21:33;;;;;;;5.33;3.93;;;;;;;;;;13171825;22;20389;-81
2023/06/13 03:26:37;;;;;;;4.50;3.70;;;;;;;;;;13172718;22;20434;-81
2023/06/13 03:31:41;;;;;;;4.35;3.63;;;;;;;;;;13170796;22;20357;-82
2023/06/13 03:36:44;;;;;;;4.30;3.70;;;;;;;;;;13172562;22;20755;-82
2023/06/13 03:41:46;;;;;;;4.70;4.20;;;;;;;;;;13171308;22;20358;-82
2023/06/13 03:46:50;;;;;;;5.05;4.53;;;;;;;;;;13172187;22;20389;-81
2023/06/13 03:51:53;;;;;;;5.70;4.80;;;;;;;;;;13194510;22;20361;-82
2023/06/13 03:56:55;;;;;;;5.30;4.37;;;;;;;;;;13172644;22;20414;-81
2023/06/13 04:01:59;;;;;;;4.85;4.35;;;;;;;;;;13193330;22;20353;-81
2023/06/13 04:07:05;;;;;;;5.97;4.28;;;;;;;;;;13172016;22;20377;-81
2023/06/13 04:12:08;;;;;;;4.80;4.30;;;;;;;;;;13172605;22;20346;-81
2023/06/13 04:17:12;;;;;;;5.05;4.20;;;;;;;;;;13170556;22;20407;-81
2023/06/13 04:22:16;;;;;;;8.38;4.60;;;;;;;;;;13172664;22;20879;-81
2023/06/13 04:27:19;;;;;;;6.63;4.55;;;;;;;;;;13173589;22;20450;-81
2023/06/13 04:32:27;;;;;;;5.33;3.83;;;;;;;;;;13175475;22;20376;-82
2023/06/13 04:37:30;;;;;;;4.03;3.63;;;;;;;;;;13186079;22;20387;-81
2023/06/13 04:42:32;;;;;;;7.20;3.77;;;;;;;;;;13175045;22;20357;-81
2023/06/13 04:47:36;;;;;;;7.27;4.47;;;;;;;;;;13174849;22;20473;-82
2023/06/13 04:52:40;;;;;;;5.20;4.40;;;;;;;;;;13175442;22;20426;-81
2023/06/13 04:57:43;;;;;;;5.85;4.35;;;;;;;;;;13174216;22;20358;-86
2023/06/13 05:02:48;;;;;;;5.45;4.40;;;;;;;;;;13172248;22;20358;-84
2023/06/13 05:07:55;;;;;;;6.07;4.50;;;;;;;;;;13195073;22;20373;-85
2023/06/13 05:12:57;;;;;;;5.90;4.50;;;;;;;;;;13194966;22;20357;-84
2023/06/13 05:18:01;;;;;;;6.33;4.30;;;;;;;;;;13173212;22;20449;-85
2023/06/13 05:23:03;;;;;;;7.27;4.30;;;;;;;;;;13172462;22;20358;-86
2023/06/13 05:28:05;;;;;;;6.40;4.60;;;;;;;;;;13171534;22;20442;-85
2023/06/13 05:33:09;;;;;;;6.57;4.10;;;;;;;;;;13172738;22;20911;-84
2023/06/13 05:49:35;;;;;;;5.87;4.77;;;;;;;;;;13238187;22;20483;-85
2023/06/13 05:54:38;;;;;;;4.83;4.33;;;;;;;;;;13239966;22;20389;-85
2023/06/13 05:59:40;;;;;;;6.90;4.90;;;;;;;;;;13235378;22;20356;-85
2023/06/13 06:04:45;;;;;;;6.60;4.72;;;;;;;;;;13230626;22;20367;-81
2023/06/13 06:09:47;;;;;;;6.10;4.80;;;;;;;;;;13240073;22;20352;-82
2023/06/13 06:14:49;;;;;;;7.05;4.80;;;;;;;;;;13237985;22;20356;-82
2023/06/13 06:19:55;;;;;;;7.10;5.40;;;;;;;;;;13239037;22;20364;-82
2023/06/13 06:24:57;;;;;;;5.67;4.40;;;;;;;;;;13237465;22;20429;-82
2023/06/13 06:30:00;;;;;;;5.43;4.43;;;;;;;;;;13237257;22;20409;-81
2023/06/13 06:35:05;;;;;;;5.87;4.40;;;;;;;;;;13237814;22;20356;-81
2023/06/13 06:40:09;;;;;;;5.38;4.40;;;;;;;;;;13238096;22;20356;-81
2023/06/13 06:45:12;;;;;;;5.60;4.50;;;;;;;;;;13238269;22;20843;-82
2023/06/13 06:50:16;;;;;;;6.83;4.97;;;;;;;;;;13259074;22;20351;-81
2023/06/13 06:55:18;;;;;;;6.43;4.77;;;;;;;;;;13238174;22;20448;-81
2023/06/13 07:00:22;;;;;;;6.47;4.20;;;;;;;;;;13237936;22;20412;-81
2023/06/13 07:05:26;;;;;;;5.82;3.58;;;;;;;;;;13238170;22;20367;-81
2023/06/13 07:10:28;;;;;;;4.33;3.53;;;;;;;;;;13236796;22;20454;-82
2023/06/13 07:15:31;;;;;;;4.90;3.47;;;;;;;;;;13237131;22;20356;-81
2023/06/13 07:20:34;;;;;;;5.77;4.03;;;;;;;;;;13237233;22;20360;-82
2023/06/13 07:25:38;;;;;;;4.70;3.90;;;;;;;;;;13237297;22;20448;-81
2023/06/13 07:30:41;;;;;;;4.40;3.90;;;;;;;;;;13231707;22;20356;-82
2023/06/13 07:35:45;;;;;;;6.10;4.28;;;;;;;;;;13258367;22;20741;-81
2023/06/13 07:40:47;;;;;;;3.67;3.03;;;;;;;;;;13235571;22;20352;-81
2023/06/13 07:45:49;;;;;;;3.72;3.10;;;;;;;;;;13236755;22;20445;-81
2023/06/13 07:50:53;;;;;;;5.47;3.50;;;;;;;;;;13236432;22;20827;-81
2023/06/13 07:55:55;;;;;;;4.43;3.15;;;;;;;;;;13260089;22;20355;-82
2023/06/13 08:00:58;;;;;;;4.05;3.33;;;;;;;;;;13236516;22;20895;-81
2023/06/13 08:06:01;;;;;;;4.65;3.20;;;;;;;;;;13241499;22;20409;-81
2023/06/13 08:11:04;;;;;;;4.35;3.08;;;;;;;;;;13263489;22;20360;-82
2023/06/13 08:16:06;;;;;;;7.07;5.07;;;;;;;;;;13240194;22;20359;-81
2023/06/13 08:21:10;;;;;;;4.10;2.80;;;;;;;;;;13262365;22;20819;-81
2023/06/13 08:26:13;;;;;;;3.67;2.88;;;;;;;;;;13212514;22;20380;-81
2023/06/13 08:31:17;;;;;;;3.38;2.80;;;;;;;;;;13239411;22;20352;-82
2023/06/13 08:36:20;;;;;;;3.03;2.60;;;;;;;;;;13240407;22;20389;-82
2023/06/13 08:41:23;;;;;;;3.23;2.40;;;;;;;;;;13240555;22;20360;-81
2023/06/13 08:46:26;;;;;;;3.00;2.65;;;;;;;;;;13238664;22;20380;-82
2023/06/13 08:51:31;;;;;;;4.50;2.92;;;;;;;;;;13262488;22;20364;-81
2023/06/13 08:56:35;;;;;;;3.47;2.80;;;;;;;;;;13238552;22;20378;-82
2023/06/13 09:01:38;;;;;;;3.33;2.97;;;;;;;;;;13240122;22;20364;-81
2023/06/13 09:06:45;;;;;;;3.73;3.13;;;;;;;;;;13240108;22;20838;-82
2023/06/13 09:11:49;;;;;;;3.65;3.10;;;;;;;;;;13239509;22;20417;-82
2023/06/13 09:16:54;;;;;;;4.07;3.30;;;;;;;;;;13260176;22;20416;-82
2023/06/13 09:21:58;;;;;;;3.45;3.15;;;;;;;;;;13238126;22;20364;-81
2023/06/13 09:27:01;;;;;;;5.53;4.13;;;;;;;;;;13239287;22;20376;-81
2023/06/13 09:32:05;;;;;;;4.90;3.55;;;;;;;;;;13262247;22;20424;-84
2023/06/13 09:37:12;;;;;;;4.97;3.80;;;;;;;;;;13239183;22;20356;-85
2023/06/13 09:42:16;;;;;;;5.70;2.97;;;;;;;;;;13240025;22;20352;-82
2023/06/13 09:47:22;;;;;;;4.45;3.30;;;;;;;;;;13258597;22;20380;-85
2023/06/13 09:52:27;;;;;;;4.78;3.40;;;;;;;;;;13239914;22;20364;-85
2023/06/13 09:57:31;;;;;;;4.70;3.50;;;;;;;;;;13239528;22;20359;-85
2023/06/13 10:02:34;;;;;;;4.95;3.33;;;;;;;;;;13239986;22;20732;-84
2023/06/13 10:07:37;;;;;;;5.03;3.60;;;;;;;;;;13240316;22;20455;-85
2023/06/13 10:12:47;;;;;;;4.40;3.50;;;;;;;;;;13239225;22;20360;-85
2023/06/13 10:17:49;;;;;;;4.40;3.67;;;;;;;;;;13239189;22;20352;-85
2023/06/13 10:22:53;;;;;;;4.65;3.60;;;;;;;;;;13239603;22;20352;-85
2023/06/13 10:28:00;;;;;;;5.13;3.55;;;;;;;;;;13239034;22;20378;-85
2023/06/13 10:33:36;;;;;;;4.30;3.00;;;;;;;;;;13240575;22;20428;-85
2023/06/13 10:39:03;;;;;;;4.38;3.30;;;;;;;;;;13187084;22;20356;-85
2023/06/13 10:44:10;;;;;;;4.22;3.65;;;;;;;;;;13238587;22;20401;-85
2023/06/13 10:49:15;;;;;;;4.97;3.25;;;;;;;;;;13237681;22;20436;-84
2023/06/13 10:54:20;;;;;;;4.27;3.87;;;;;;;;;;13238512;22;20453;-85
2023/06/13 10:59:22;;;;;;;4.55;3.75;;;;;;;;;;13236537;22;20428;-82
2023/06/13 11:04:24;;;;;;;4.95;4.03;;;;;;;;;;13259744;22;20676;-82
2023/06/13 11:09:28;;;;;;;4.70;3.80;;;;;;;;;;13236837;22;20428;-82
2023/06/13 11:14:33;;;;;;;12.48;3.20;;;;;;;;;;13237126;22;20680;-84
2023/06/13 11:19:39;;;;;;;3.70;3.30;;;;;;;;;;13258484;22;20367;-85
2023/06/13 11:24:44;;;;;;;5.60;3.10;;;;;;;;;;13238421;22;20397;-86
2023/06/13 11:29:46;;;;;;;3.80;3.10;;;;;;;;;;13235723;22;20431;-85
2023/06/13 11:34:50;;;;;;;3.05;2.65;;;;;;;;;;13229913;22;20416;-86
2023/06/13 11:39:56;;;;;;;3.80;3.40;;;;;;;;;;13252128;22;20367;-86
2023/06/13 11:44:58;;;;;;;4.10;3.00;;;;;;;;;;13234954;22;20372;-85
2023/06/13 11:50:01;;;;;;;5.35;3.05;;;;;;;;;;13234694;22;20429;-86
2023/06/13 11:55:17;;;;;;;5.30;3.47;;;;;;;;;;13234829;22;20356;-85
2023/06/13 12:00:25;;;;;;;4.80;3.40;;;;;;;;;;13233514;22;20381;-85
2023/06/13 12:05:29;;;;;;;5.30;3.42;;;;;;;;;;13232299;22;20360;-82
2023/06/13 12:10:33;;;;;;;4.38;3.10;;;;;;;;;;13232141;22;20506;-85
2023/06/13 12:15:35;;;;;;;3.70;3.00;;;;;;;;;;13231082;22;20363;-85
2023/06/13 12:20:48;;;;;;;3.30;3.00;;;;;;;;;;13232558;22;20483;-84
2023/06/13 12:25:52;;;;;;;4.30;3.10;;;;;;;;;;13241304;22;20360;-85
2023/06/13 12:30:57;;;;;;;4.63;2.97;;;;;;;;;;13230978;22;20375;-85
2023/06/13 12:36:00;;;;;;;4.07;2.93;;;;;;;;;;13232574;22;20368;-84
2023/06/13 12:41:14;;;;;;;3.38;2.65;;;;;;;;;;13232102;22;20372;-84
2023/06/13 12:46:16;;;;;;;3.53;2.50;;;;;;;;;;13231709;22;20375;-84
2023/06/13 12:51:28;;;;;;;3.17;2.88;;;;;;;;;;13232255;22;20384;-83
2023/06/13 12:56:32;;;;;;;4.37;3.20;;;;;;;;;;13228480;22;20412;-84
2023/06/13 13:01:34;;;;;;;4.43;3.03;;;;;;;;;;13228048;22;20441;-85
2023/06/13 13:06:36;;;;;;;3.65;3.05;;;;;;;;;;13231295;22;20697;-84
2023/06/13 13:11:40;;;;;;;4.97;2.93;;;;;;;;;;13255073;22;20390;-84
2023/06/13 13:16:42;;;;;;;4.63;3.13;;;;;;;;;;13230122;22;20372;-84
2023/06/13 13:21:45;;;;;;;3.47;3.10;;;;;;;;;;13236471;22;20395;-84
2023/06/13 13:26:52;;;;;;;4.10;3.00;;;;;;;;;;13231147;22;20429;-84
2023/06/13 13:31:54;;;;;;;3.65;2.88;;;;;;;;;;13229523;22;21043;-86
2023/06/13 13:36:56;;;;;;;5.00;3.00;;;;;;;;;;13225837;22;20372;-85
2023/06/13 13:42:00;;;;;;;2.97;2.60;;;;;;;;;;13241078;22;20827;-84
2023/06/13 13:47:03;;;;;;;4.60;3.10;;;;;;;;;;13225501;22;20375;-85
2023/06/13 13:52:06;;;;;;;3.33;3.03;;;;;;;;;;13227765;22;20360;-84
2023/06/13 13:57:10;;;;;;;3.08;2.78;;;;;;;;;;13226863;22;20432;-84
2023/06/13 14:02:12;;;;;;;4.13;2.92;;;;;;;;;;13225966;22;20877;-84
2023/06/13 14:07:15;;;;;;;3.70;2.83;;;;;;;;;;13226440;22;20363;-85
2023/06/13 14:12:18;;;;;;;4.00;2.90;;;;;;;;;;13227010;22;20393;-85
2023/06/13 14:17:22;;;;;;;3.28;2.95;;;;;;;;;;13226363;22;20443;-85
2023/06/13 14:22:24;;;;;;;4.38;3.10;;;;;;;;;;13227210;22;20371;-84
2023/06/13 14:27:28;;;;;;;5.60;3.20;;;;;;;;;;13225980;22;20839;-84
2023/06/13 14:32:30;;;;;;;3.88;3.47;;;;;;;;;;13225762;22;20364;-85
2023/06/13 14:37:33;;;;;;;4.40;2.90;;;;;;;;;;13226898;22;20727;-84
2023/06/13 14:42:37;;;;;;;2.95;2.65;;;;;;;;;;13228004;22;20360;-85
2023/06/13 14:47:39;;;;;;;3.88;2.83;;;;;;;;;;13227497;22;20364;-84
2023/06/13 14:52:42;;;;;;;3.83;3.20;;;;;;;;;;13228831;22;20416;-85
2023/06/13 14:57:47;;;;;;;3.30;3.00;;;;;;;;;;13231259;22;20360;-84
2023/06/13 15:02:51;;;;;;;3.27;2.97;;;;;;;;;;13231307;22;20356;-85
2023/06/13 15:07:53;;;;;;;3.53;3.20;;;;;;;;;;13232670;22;20892;-84
2023/06/13 15:12:57;;;;;;;3.30;3.00;;;;;;;;;;13231766;22;20467;-82
2023/06/13 15:17:59;;;;;;;4.05;3.00;;;;;;;;;;13230829;22;20360;-83
2023/06/13 15:23:02;;;;;;;3.70;3.20;;;;;;;;;;13233277;22;20352;-83
2023/06/13 15:28:06;;;;;;;3.85;3.20;;;;;;;;;;13231455;22;20375;-84
2023/06/13 15:33:08;;;;;;;4.50;3.35;;;;;;;;;;13222586;22;20359;-83
2023/06/13 15:38:10;;;;;;;4.23;3.20;;;;;;;;;;13230483;22;20432;-84
2023/06/13 15:43:14;;;;;;;3.78;2.92;;;;;;;;;;13224771;22;20363;-84
2023/06/13 15:48:16;;;;;;;3.10;2.80;;;;;;;;;;13222369;22;20384;-83
2023/06/13 15:53:19;;;;;;;3.55;3.00;;;;;;;;;;13224698;22;20379;-84
2023/06/13 15:58:23;;;;;;;3.53;3.22;;;;;;;;;;13225122;22;20368;-84
2023/06/13 16:03:26;;;;;;;4.03;3.10;;;;;;;;;;13223862;22;20929;-83
2023/06/13 16:08:29;;;;;;;4.83;2.80;;;;;;;;;;13224896;22;20380;-84
2023/06/13 16:13:33;;;;;;;3.03;2.80;;;;;;;;;;13225714;22;20363;-84
2023/06/13 16:18:36;;;;;;;4.65;2.78;;;;;;;;;;13223506;22;20429;-84
2023/06/13 16:23:40;;;;;;;3.45;2.85;;;;;;;;;;13227351;22;20368;-84
2023/06/13 16:28:43;;;;;;;3.17;2.88;;;;;;;;;;13229951;22;20432;-84
2023/06/13 16:33:46;;;;;;;3.53;2.67;;;;;;;;;;13225827;22;20632;-83
2023/06/13 16:38:48;;;;;;;3.93;2.90;;;;;;;;;;13227030;22;20359;-84
2023/06/13 16:43:52;;;;;;;4.13;2.80;;;;;;;;;;13227633;22;20368;-82
2023/06/13 16:48:54;;;;;;;3.00;2.70;;;;;;;;;;13225881;22;20379;-83
2023/06/13 16:53:57;;;;;;;3.05;2.70;;;;;;;;;;13234081;22;20847;-82
2023/06/13 16:59:01;;;;;;;3.13;2.83;;;;;;;;;;13236329;22;20360;-85
2023/06/13 17:04:03;;;;;;;2.95;2.65;;;;;;;;;;13226552;22;20371;-83
2023/06/13 17:09:06;;;;;;;3.77;2.70;;;;;;;;;;13227321;22;20429;-83
2023/06/13 17:14:10;;;;;;;3.05;2.67;;;;;;;;;;13226989;22;20364;-84
2023/06/13 17:19:16;;;;;;;3.55;2.70;;;;;;;;;;13226756;22;20375;-83
2023/06/13 17:24:19;;;;;;;3.83;2.50;;;;;;;;;;13226609;22;20368;-84
2023/06/13 17:29:22;;;;;;;2.97;2.67;;;;;;;;;;13228488;22;20368;-84
2023/06/13 17:34:26;;;;;;;4.00;2.70;;;;;;;;;;13225440;22;21060;-84
2023/06/13 17:39:28;;;;;;;4.10;2.58;;;;;;;;;;13227100;22;20355;-84
2023/06/13 17:44:32;;;;;;;3.20;2.57;;;;;;;;;;13224297;22;20432;-84
2023/06/13 17:49:35;;;;;;;3.58;2.45;;;;;;;;;;13224533;22;20379;-84
2023/06/13 17:54:37;;;;;;;3.33;2.70;;;;;;;;;;13224135;22;20367;-84
2023/06/13 17:59:41;;;;;;;3.78;2.75;;;;;;;;;;13232783;22;20372;-84
2023/06/13 18:04:43;;;;;;;2.80;2.60;;;;;;;;;;13224375;22;20429;-83
2023/06/13 18:09:45;;;;;;;3.00;2.53;;;;;;;;;;13225637;22;20383;-84
2023/06/13 18:14:50;;;;;;;3.58;2.75;;;;;;;;;;13225529;22;20372;-84
2023/06/13 18:19:52;;;;;;;3.50;2.80;;;;;;;;;;13226739;22;20364;-84
2023/06/13 18:24:54;;;;;;;3.30;2.63;;;;;;;;;;13224976;22;20401;-84
2023/06/13 18:29:58;;;;;;;4.38;2.30;;;;;;;;;;13226139;22;20383;-84
2023/06/13 18:35:01;;;;;;;2.42;2.22;;;;;;;;;;13247136;22;20428;-84
2023/06/13 18:40:06;;;;;;;3.20;2.20;;;;;;;;;;13226624;22;20360;-84
2023/06/13 18:45:11;;;;;;;2.87;2.37;;;;;;;;;;13220927;22;20395;-83
2023/06/13 18:50:13;;;;;;;3.22;2.30;;;;;;;;;;13221769;22;20473;-84
2023/06/13 18:55:16;;;;;;;2.70;2.10;;;;;;;;;;13223406;22;20364;-84
2023/06/13 19:00:21;;;;;;;3.80;2.58;;;;;;;;;;13226596;22;20372;-84
2023/06/13 19:05:23;;;;;;;2.60;2.38;;;;;;;;;;13223650;22;20367;-84
2023/06/13 19:10:26;;;;;;;5.35;2.28;;;;;;;;;;13226864;22;20443;-83
2023/06/13 19:15:33;;;;;;;3.15;2.63;;;;;;;;;;13223851;22;20700;-84
2023/06/13 19:20:38;;;;;;;4.40;2.50;;;;;;;;;;13222563;22;20371;-84
2023/06/13 19:25:42;;;;;;;3.90;2.50;;;;;;;;;;13243587;22;20364;-84
2023/06/13 19:30:46;;;;;;;4.05;2.83;;;;;;;;;;13222966;22;20376;-84
2023/06/13 19:35:48;;;;;;;2.97;2.30;;;;;;;;;;13246725;22;20413;-84
2023/06/13 19:40:51;;;;;;;3.53;2.63;;;;;;;;;;13221936;22;20355;-84
2023/06/13 19:45:57;;;;;;;5.47;2.78;;;;;;;;;;13222328;22;20429;-83
2023/06/13 19:51:00;;;;;;;3.13;2.67;;;;;;;;;;13222258;22;20502;-84
2023/06/13 19:56:03;;;;;;;2.92;2.50;;;;;;;;;;13224074;22;20444;-84
2023/06/13 20:01:07;;;;;;;3.95;3.33;;;;;;;;;;13226452;22;20416;-83
2023/06/13 20:06:11;;;;;;;5.40;4.50;;;;;;;;;;13226719;22;20368;-83
2023/06/13 20:11:14;;;;;;;5.18;4.53;;;;;;;;;;13227851;22;20444;-84
2023/06/13 20:16:18;;;;;;;8.30;5.18;;;;;;;;;;13226472;22;20700;-84
2023/06/13 20:21:20;;;;;;;6.45;4.90;;;;;;;;;;13227866;22;20447;-84
2023/06/13 20:26:22;;;;;;;8.48;4.85;;;;;;;;;;13228836;22;21092;-84
2023/06/13 20:31:26;;;;;;;5.97;4.90;;;;;;;;;;13226823;22;20421;-83
2023/06/13 20:36:29;;;;;;;6.20;4.60;;;;;;;;;;13225971;22;20405;-83
2023/06/13 20:41:33;;;;;;;5.43;4.65;;;;;;;;;;13228308;22;20726;-83
2023/06/13 20:46:39;;;;;;;6.45;4.85;;;;;;;;;;13225474;22;20835;-84
2023/06/13 20:51:45;;;;;;;4.97;4.20;;;;;;;;;;13226019;22;20416;-84
2023/06/13 20:56:48;;;;;;;4.50;4.00;;;;;;;;;;13234227;22;20429;-84
2023/06/13 21:01:54;;;;;;;5.30;3.97;;;;;;;;;;13230590;22;20368;-84
2023/06/13 21:06:56;;;;;;;5.20;3.95;;;;;;;;;;13231938;22;20376;-84
2023/06/13 21:11:59;;;;;;;4.83;3.70;;;;;;;;;;13239288;22;20409;-84
2023/06/13 21:17:03;;;;;;;4.47;3.70;;;;;;;;;;13232178;22;20352;-84
2023/06/13 21:22:07;;;;;;;3.90;3.50;;;;;;;;;;13235495;22;20815;-84
2023/06/13 21:27:10;;;;;;;4.30;3.75;;;;;;;;;;13257991;22;20355;-85
2023/06/13 21:32:14;;;;;;;4.27;3.87;;;;;;;;;;13237819;22;20371;-85
2023/06/13 21:37:16;;;;;;;4.38;3.92;;;;;;;;;;13234100;22;20360;-82
2023/06/13 21:42:18;;;;;;;4.47;3.67;;;;;;;;;;13234706;22;20417;-84
2023/06/13 21:47:23;;;;;;;4.95;4.05;;;;;;;;;;13238862;22;20360;-84
2023/06/13 21:52:25;;;;;;;6.37;4.60;;;;;;;;;;13239117;22;20379;-84
2023/06/13 21:57:29;;;;;;;5.13;4.30;;;;;;;;;;13238406;22;21678;-84
2023/06/13 22:02:33;;;;;;;4.95;4.40;;;;;;;;;;13238661;22;20360;-83
2023/06/13 22:07:35;;;;;;;5.75;4.85;;;;;;;;;;13238867;22;20356;-84
2023/06/13 22:12:41;;;;;;;4.75;4.30;;;;;;;;;;13238761;22;20371;-84
2023/06/13 22:17:45;;;;;;;5.45;4.43;;;;;;;;;;13239350;22;20352;-84
2023/06/13 22:22:49;;;;;;;6.72;4.43;;;;;;;;;;13260130;22;20862;-84
2023/06/13 22:27:53;;;;;;;4.82;4.43;;;;;;;;;;13238745;22;20356;-84
2023/06/13 22:32:57;;;;;;;7.05;4.20;;;;;;;;;;13238683;22;20375;-84
2023/06/13 22:37:59;;;;;;;5.25;4.68;;;;;;;;;;13238351;22;20429;-84
2023/06/13 22:43:01;;;;;;;5.83;4.97;;;;;;;;;;13238401;22;20356;-84
2023/06/13 22:48:06;;;;;;;6.70;5.03;;;;;;;;;;13238928;22;20413;-83
2023/06/13 22:53:09;;;;;;;5.20;4.53;;;;;;;;;;13261710;22;20364;-84
2023/06/13 22:58:11;;;;;;;5.70;4.40;;;;;;;;;;13238607;22;20360;-84
2023/06/13 23:03:15;;;;;;;5.05;4.13;;;;;;;;;;13238239;22;20425;-83
2023/06/13 23:08:17;;;;;;;4.10;3.70;;;;;;;;;;13236777;22;20421;-83
2023/06/13 23:13:20;;;;;;;5.10;3.90;;;;;;;;;;13237792;22;20372;-84
2023/06/13 23:18:25;;;;;;;4.07;3.58;;;;;;;;;;13237618;22;20356;-84
2023/06/13 23:23:27;;;;;;;4.90;4.00;;;;;;;;;;13238097;22;20356;-84
2023/06/13 23:28:31;;;;;;;6.15;3.88;;;;;;;;;;13238555;22;20352;-84
2023/06/13 23:33:37;;;;;;;6.70;4.22;;;;;;;;;;13237993;22;20751;-84
2023/06/13 23:38:41;;;;;;;6.07;4.13;;;;;;;;;;13217708;22;20370;-79
2023/06/13 23:43:44;;;;;;;5.15;4.60;;;;;;;;;;13171715;22;20350;-78
2023/06/13 23:48:47;;;;;;;7.27;4.20;;;;;;;;;;13171161;22;20990;-79
2023/06/13 23:53:49;;;;;;;4.93;4.32;;;;;;;;;;13171904;22;20373;-78
2023/06/13 23:58:52;;;;;;;7.47;4.60;;;;;;;;;;13171796;22;20361;-79
